Time;durP1;ratioP1;P1;durP2;ratioP2;P2;SDS_P1;SDS_P2;PMS_P1;PMS_P2;Temp;Humidity;BMP_temperature;BMP_pressure;BME280_temperature;BME280_humidity;BME280_pressure;Samples;Min_cycle;Max_cycle;Signal;HPM_P1;HPM_P2
2021/03/05 00:00:47;;;;;;;2.83;1.70;;;;;16.90;101032.00;;;;2085488;28;20232;-69
2021/03/05 00:01:48;;;;;;;1.83;1.63;;;;;16.90;101028.00;;;;2085122;28;20214;-69
2021/03/05 00:02:48;;;;;;;2.40;1.50;;;;;16.90;101035.00;;;;2085363;28;20233;-70
2021/03/05 00:03:48;;;;;;;3.00;1.70;;;;;16.90;101036.00;;;;2070932;28;25581;-69
2021/03/05 00:04:49;;;;;;;2.63;1.70;;;;;16.90;101034.00;;;;2070835;28;20431;-70
2021/03/05 00:05:49;;;;;;;2.20;1.90;;;;;16.90;101038.00;;;;2085290;28;21010;-70
2021/03/05 00:06:50;;;;;;;2.37;1.90;;;;;16.90;101035.00;;;;2085459;28;20257;-69
2021/03/05 00:07:50;;;;;;;2.40;1.70;;;;;16.90;101040.00;;;;2087732;28;20234;-69
2021/03/05 00:08:50;;;;;;;1.77;1.60;;;;;16.90;101037.00;;;;2079193;28;20214;-70
2021/03/05 00:09:51;;;;;;;2.23;1.80;;;;;16.90;101038.00;;;;2076976;28;20230;-69
2021/03/05 00:10:51;;;;;;;3.60;2.17;;;;;16.90;101043.00;;;;2085422;28;20215;-70
2021/03/05 00:11:51;;;;;;;2.13;1.53;;;;;16.90;101046.00;;;;2085225;28;20234;-69
2021/03/05 00:12:52;;;;;;;2.20;1.67;;;;;16.90;101042.00;;;;2085547;28;20241;-69
2021/03/05 00:13:52;;;;;;;2.20;1.83;;;;;16.90;101055.00;;;;2085538;28;20217;-69
2021/03/05 00:14:52;;;;;;;3.10;1.93;;;;;16.90;101052.00;;;;2085005;28;20257;-69
2021/03/05 00:15:53;;;;;;;2.20;2.00;;;;;16.90;101050.00;;;;2079183;28;20293;-70
2021/03/05 00:16:53;;;;;;;2.30;1.83;;;;;16.90;101051.00;;;;2071137;28;20204;-69
2021/03/05 00:17:54;;;;;;;4.00;2.20;;;;;16.90;101050.00;;;;2076576;28;20214;-69
2021/03/05 00:18:54;;;;;;;2.43;1.90;;;;;16.90;101056.00;;;;2077313;28;20217;-70
2021/03/05 00:19:55;;;;;;;3.03;1.90;;;;;16.90;101052.00;;;;2079164;28;20215;-69
2021/03/05 00:20:55;;;;;;;2.10;1.70;;;;;16.90;101042.00;;;;2082983;28;20228;-70
2021/03/05 00:21:55;;;;;;;3.50;2.20;;;;;16.90;101051.00;;;;2090129;28;20210;-70
2021/03/05 00:22:56;;;;;;;2.53;1.70;;;;;16.90;101041.00;;;;2082688;28;20595;-69
2021/03/05 00:23:56;;;;;;;2.50;2.13;;;;;16.90;101051.00;;;;2060118;28;20682;-70
2021/03/05 00:24:57;;;;;;;2.23;1.83;;;;;16.90;101046.00;;;;2068038;28;20211;-69
2021/03/05 00:25:57;;;;;;;2.23;1.60;;;;;16.80;101045.00;;;;2085337;28;20226;-69
2021/03/05 00:26:57;;;;;;;2.50;2.00;;;;;16.90;101055.00;;;;2085424;28;21275;-70
2021/03/05 00:27:58;;;;;;;2.00;1.80;;;;;16.90;101050.00;;;;2085499;28;20210;-69
2021/03/05 00:28:58;;;;;;;1.87;1.50;;;;;16.80;101051.00;;;;2090565;28;20239;-70
2021/03/05 00:29:59;;;;;;;2.70;1.60;;;;;16.90;101049.00;;;;2082561;28;20560;-69
2021/03/05 00:30:59;;;;;;;3.43;1.90;;;;;16.90;101055.00;;;;2076572;28;20708;-70
2021/03/05 00:31:59;;;;;;;2.20;1.90;;;;;16.90;101051.00;;;;2085226;28;20210;-69
2021/03/05 00:33:03;;;;;;;2.00;1.87;;;;;16.90;101055.00;;;;2085344;28;20209;-70
2021/03/05 00:34:03;;;;;;;1.90;1.80;;;;;16.90;101049.00;;;;2081792;28;20206;-69
2021/03/05 00:35:05;;;;;;;2.53;1.70;;;;;16.90;101052.00;;;;2081536;28;20191;-69
2021/03/05 00:36:06;;;;;;;2.58;1.73;;;;;16.90;101055.00;;;;2075569;28;20271;-70
2021/03/05 00:37:06;;;;;;;2.20;2.00;;;;;16.80;101058.00;;;;2076610;28;20234;-69
2021/03/05 00:38:07;;;;;;;1.70;1.60;;;;;16.80;101063.00;;;;2084427;28;20218;-70
2021/03/05 00:39:07;;;;;;;1.90;1.57;;;;;16.80;101059.00;;;;2085214;28;20228;-70
2021/03/05 00:40:09;;;;;;;2.37;1.50;;;;;16.90;101064.00;;;;2085352;28;20209;-70
2021/03/05 00:41:10;;;;;;;2.30;1.85;;;;;16.90;101059.00;;;;2085344;28;20210;-69
2021/03/05 00:42:10;;;;;;;2.57;1.60;;;;;16.90;101054.00;;;;2085270;28;20293;-69
2021/03/05 00:43:10;;;;;;;1.90;1.47;;;;;16.90;101065.00;;;;2085292;28;20749;-69
2021/03/05 00:44:11;;;;;;;2.03;1.60;;;;;16.90;101057.00;;;;2090628;28;20720;-69
2021/03/05 00:45:12;;;;;;;3.27;1.80;;;;;16.90;101056.00;;;;2081903;28;20700;-69
2021/03/05 00:46:13;;;;;;;1.90;1.70;;;;;16.90;101053.00;;;;2076540;28;20199;-70
2021/03/05 00:47:13;;;;;;;2.40;1.60;;;;;16.90;101070.00;;;;2076538;28;20213;-69
2021/03/05 00:48:14;;;;;;;2.27;1.67;;;;;16.90;101069.00;;;;2076545;28;20200;-70
2021/03/05 00:49:14;;;;;;;2.90;1.77;;;;;16.90;101062.00;;;;2085937;28;20205;-70
2021/03/05 00:50:15;;;;;;;2.67;1.77;;;;;16.80;101063.00;;;;2090247;28;20585;-70
2021/03/05 00:51:16;;;;;;;3.53;2.03;;;;;16.80;101070.00;;;;2066373;28;20234;-70
2021/03/05 00:52:16;;;;;;;1.80;1.30;;;;;16.80;101065.00;;;;2070353;28;20206;-69
2021/03/05 00:53:17;;;;;;;4.03;1.70;;;;;16.80;101066.00;;;;2076165;28;20202;-70
2021/03/05 00:54:17;;;;;;;2.53;1.73;;;;;16.80;101059.00;;;;2076476;28;20235;-70
2021/03/05 00:55:18;;;;;;;2.30;1.70;;;;;16.90;101062.00;;;;2084741;28;20251;-70
2021/03/05 00:56:18;;;;;;;4.27;1.80;;;;;16.80;101065.00;;;;2075911;28;20208;-70
2021/03/05 00:57:19;;;;;;;2.77;1.80;;;;;16.90;101065.00;;;;2073791;28;20286;-70
2021/03/05 00:58:19;;;;;;;2.50;1.77;;;;;16.80;101068.00;;;;2076153;28;20554;-69
2021/03/05 00:59:19;;;;;;;1.93;1.47;;;;;16.80;101072.00;;;;2085096;28;20583;-70
2021/03/05 01:00:20;;;;;;;2.10;1.50;;;;;16.80;101073.00;;;;2085064;28;20233;-69
2021/03/05 01:01:20;;;;;;;2.00;1.80;;;;;16.90;101080.00;;;;2075659;28;20222;-70
2021/03/05 01:02:21;;;;;;;2.97;1.73;;;;;16.80;101074.00;;;;2075202;28;20584;-69
2021/03/05 01:03:21;;;;;;;3.07;1.90;;;;;16.80;101071.00;;;;2068282;28;20262;-69
2021/03/05 01:04:21;;;;;;;2.40;1.93;;;;;16.80;101070.00;;;;2085817;28;20217;-69
2021/03/05 01:05:22;;;;;;;3.60;1.63;;;;;16.80;101073.00;;;;2084914;28;20217;-69
2021/03/05 01:06:22;;;;;;;3.30;1.97;;;;;16.80;101074.00;;;;2076440;28;20210;-69
2021/03/05 01:07:22;;;;;;;3.10;1.73;;;;;16.80;101079.00;;;;2076226;28;20222;-69
2021/03/05 01:08:23;;;;;;;3.60;2.10;;;;;16.80;101076.00;;;;2084843;28;20639;-69
2021/03/05 01:09:23;;;;;;;3.00;2.17;;;;;16.80;101079.00;;;;2085083;28;20272;-70
2021/03/05 01:10:23;;;;;;;1.93;1.43;;;;;16.80;101079.00;;;;2076131;28;20218;-69
2021/03/05 01:11:24;;;;;;;2.30;1.83;;;;;16.80;101069.00;;;;2075934;28;20206;-70
2021/03/05 01:12:24;;;;;;;2.97;1.67;;;;;16.80;101080.00;;;;2085016;28;20314;-70
2021/03/05 01:13:25;;;;;;;3.10;2.10;;;;;16.90;101083.00;;;;2084641;28;20312;-70
2021/03/05 01:14:25;;;;;;;2.30;1.57;;;;;16.90;101078.00;;;;2084580;28;20213;-70
2021/03/05 01:15:25;;;;;;;2.03;1.60;;;;;16.90;101080.00;;;;2085051;28;20348;-70
2021/03/05 01:16:26;;;;;;;2.70;1.90;;;;;16.90;101077.00;;;;2086403;28;20222;-70
2021/03/05 01:17:26;;;;;;;2.67;1.60;;;;;16.80;101084.00;;;;2091355;28;20208;-69
2021/03/05 01:18:26;;;;;;;2.07;1.47;;;;;16.80;101078.00;;;;2084503;28;20659;-70
2021/03/05 01:19:27;;;;;;;1.50;1.40;;;;;16.90;101080.00;;;;2082099;28;20218;-70
2021/03/05 01:20:27;;;;;;;2.40;1.90;;;;;16.90;101083.00;;;;2078604;28;20224;-69
2021/03/05 01:21:28;;;;;;;2.33;1.50;;;;;16.80;101079.00;;;;2073175;28;20799;-69
2021/03/05 01:22:28;;;;;;;1.90;1.80;;;;;16.80;101061.00;;;;2078388;28;20767;-69
2021/03/05 01:23:29;;;;;;;2.50;1.60;;;;;16.80;101087.00;;;;2075977;28;20668;-70
2021/03/05 01:24:29;;;;;;;1.90;1.60;;;;;16.80;101080.00;;;;2075741;28;20851;-70
2021/03/05 01:25:30;;;;;;;2.10;1.73;;;;;16.90;101082.00;;;;2084714;28;20225;-69
2021/03/05 01:26:31;;;;;;;2.10;1.90;;;;;16.80;101089.00;;;;2075985;28;20229;-69
2021/03/05 01:27:31;;;;;;;3.47;1.87;;;;;16.90;101084.00;;;;2075987;28;20613;-69
2021/03/05 01:28:31;;;;;;;2.90;1.90;;;;;16.90;101083.00;;;;2084997;28;20213;-70
2021/03/05 01:29:32;;;;;;;1.83;1.47;;;;;16.80;101085.00;;;;2084737;28;20241;-70
2021/03/05 01:30:32;;;;;;;2.17;1.70;;;;;16.80;101081.00;;;;2085069;28;20214;-69
2021/03/05 01:31:33;;;;;;;3.10;1.80;;;;;16.80;101089.00;;;;2074834;28;20211;-69
2021/03/05 01:32:33;;;;;;;2.50;1.80;;;;;16.80;101087.00;;;;2067790;28;20211;-70
2021/03/05 01:33:34;;;;;;;3.10;1.83;;;;;16.80;101087.00;;;;2075854;28;20214;-70
2021/03/05 01:34:34;;;;;;;2.30;1.77;;;;;16.80;101089.00;;;;2075450;28;20215;-70
2021/03/05 01:35:34;;;;;;;2.37;1.40;;;;;16.80;101084.00;;;;2076239;28;20646;-70
2021/03/05 01:36:35;;;;;;;2.20;1.67;;;;;16.80;101089.00;;;;2084819;28;20646;-69
2021/03/05 01:37:35;;;;;;;2.00;1.70;;;;;16.80;101089.00;;;;2084950;28;20224;-70
2021/03/05 01:38:36;;;;;;;3.43;1.80;;;;;16.80;101096.00;;;;2084546;28;20759;-70
2021/03/05 01:39:37;;;;;;;2.35;2.15;;;;;16.80;101088.00;;;;2067985;28;20215;-69
2021/03/05 01:40:39;;;;;;;2.43;1.80;;;;;16.80;101083.00;;;;2067924;28;20230;-70
2021/03/05 01:41:39;;;;;;;1.77;1.40;;;;;16.80;101090.00;;;;2076339;28;20753;-70
2021/03/05 01:42:40;;;;;;;2.03;1.50;;;;;16.80;101099.00;;;;2074591;28;20267;-70
2021/03/05 01:43:40;;;;;;;2.60;1.80;;;;;16.80;101092.00;;;;2075730;28;20207;-66
2021/03/05 01:44:40;;;;;;;2.27;2.03;;;;;16.80;101087.00;;;;2075508;28;20218;-66
2021/03/05 01:45:41;;;;;;;3.13;1.77;;;;;16.80;101102.00;;;;2076094;28;20621;-69
2021/03/05 01:46:41;;;;;;;3.30;1.83;;;;;16.80;101093.00;;;;2075981;28;20211;-69
2021/03/05 01:47:43;;;;;;;2.17;1.97;;;;;16.80;101092.00;;;;2084559;28;20251;-69
2021/03/05 01:48:43;;;;;;;2.47;1.63;;;;;16.80;101101.00;;;;2069593;28;20211;-69
2021/03/05 01:49:44;;;;;;;3.43;1.93;;;;;16.80;101092.00;;;;2069154;28;20230;-69
2021/03/05 01:50:52;;;;;;;2.40;2.20;;;;;16.80;101100.00;;;;2087406;28;20683;-69
2021/03/05 01:51:53;;;;;;;3.10;2.40;;;;;16.80;101095.00;;;;2078391;28;20712;-69
2021/03/05 01:52:58;;;;;;;2.20;1.87;;;;;16.80;101103.00;;;;2075396;28;20407;-70
2021/03/05 01:53:58;;;;;;;2.20;2.00;;;;;16.80;101101.00;;;;2078221;28;20744;-69
2021/03/05 01:54:58;;;;;;;3.63;2.10;;;;;16.80;101105.00;;;;2070120;28;20210;-69
2021/03/05 01:55:59;;;;;;;3.40;2.10;;;;;16.80;101103.00;;;;2078074;28;20224;-69
2021/03/05 01:56:59;;;;;;;5.37;2.00;;;;;16.80;101103.00;;;;2075556;28;20234;-69
2021/03/05 01:57:59;;;;;;;2.87;2.20;;;;;16.80;101109.00;;;;2075719;28;20762;-69
2021/03/05 01:59:00;;;;;;;4.43;2.10;;;;;16.80;101106.00;;;;2076038;28;20692;-69
2021/03/05 02:00:00;;;;;;;3.20;2.07;;;;;16.80;101110.00;;;;2075451;28;20206;-70
2021/03/05 02:01:07;;;;;;;2.87;1.80;;;;;16.80;101103.00;;;;2076145;28;20240;-70
2021/03/05 02:02:08;;;;;;;2.72;2.17;;;;;16.80;101109.00;;;;2073796;28;20220;-70
2021/03/05 02:03:08;;;;;;;2.53;1.73;;;;;16.70;101108.00;;;;2089707;28;20221;-69
2021/03/05 02:04:10;;;;;;;3.77;2.03;;;;;16.70;101113.00;;;;2081427;28;20272;-70
2021/03/05 02:05:10;;;;;;;2.60;2.17;;;;;16.80;101123.00;;;;2067182;28;20218;-70
2021/03/05 02:06:11;;;;;;;2.20;1.70;;;;;16.80;101108.00;;;;2075880;28;20696;-70
2021/03/05 02:07:11;;;;;;;2.60;2.40;;;;;16.80;101108.00;;;;2084734;28;20233;-69
2021/03/05 02:08:12;;;;;;;2.87;2.00;;;;;16.80;101110.00;;;;2089850;28;20213;-69
2021/03/05 02:09:13;;;;;;;3.17;1.90;;;;;16.80;101117.00;;;;2081489;28;20324;-69
2021/03/05 02:10:13;;;;;;;2.70;2.10;;;;;16.80;101112.00;;;;2075630;28;20459;-67
2021/03/05 02:11:18;;;;;;;2.63;2.20;;;;;16.80;101110.00;;;;2084847;28;20210;-69
2021/03/05 02:12:19;;;;;;;3.50;2.20;;;;;16.80;101114.00;;;;2084326;28;20293;-69
2021/03/05 02:13:19;;;;;;;3.33;2.20;;;;;16.80;101117.00;;;;2084737;28;20213;-69
2021/03/05 02:14:19;;;;;;;3.20;2.30;;;;;16.80;101111.00;;;;2083537;28;20221;-70
2021/03/05 02:15:20;;;;;;;2.10;1.80;;;;;16.80;101124.00;;;;2067701;28;20289;-70
2021/03/05 02:16:20;;;;;;;2.37;1.80;;;;;16.70;101115.00;;;;2067628;28;20238;-69
2021/03/05 02:17:35;;;;;;;2.90;2.30;;;;;16.70;101111.00;;;;2075695;28;20210;-70
2021/03/05 02:18:52;;;;;;;3.33;2.10;;;;;16.80;101119.00;;;;2076640;28;20225;-69
2021/03/05 02:20:30;;;;;;;2.63;2.10;;;;;16.80;101125.00;;;;2063585;28;20591;-69
2021/03/05 02:23:53;;;;;;;3.05;2.30;;;;;16.80;101125.00;;;;2084190;28;20213;-70
2021/03/05 02:24:58;;;;;;;3.28;2.40;;;;;16.80;101128.00;;;;2069130;28;20216;-69
2021/03/05 02:26:10;;;;;;;2.70;1.83;;;;;16.80;101126.00;;;;2071941;28;20215;-69
2021/03/05 02:27:36;;;;;;;4.00;2.60;;;;;16.80;101117.00;;;;2089659;28;20215;-69
2021/03/05 02:29:04;;;;;;;2.70;2.38;;;;;16.80;101120.00;;;;2086087;28;20225;-70
2021/03/05 02:30:26;;;;;;;3.13;2.25;;;;;16.80;101130.00;;;;2088295;28;20209;-69
2021/03/05 02:31:31;;;;;;;2.08;1.88;;;;;16.80;101125.00;;;;2083546;28;20638;-69
2021/03/05 02:32:58;;;;;;;2.78;2.05;;;;;16.70;101128.00;;;;2081679;28;20739;-70
2021/03/05 02:34:04;;;;;;;2.10;1.90;;;;;16.80;101121.00;;;;2073961;28;20707;-69
2021/03/05 02:35:05;;;;;;;2.95;2.28;;;;;16.80;101127.00;;;;2074236;28;20305;-70
2021/03/05 02:36:06;;;;;;;2.63;2.33;;;;;16.80;101126.00;;;;2066410;28;20212;-70
2021/03/05 02:37:10;;;;;;;2.65;2.00;;;;;16.80;101117.00;;;;2059858;28;20495;-69
2021/03/05 02:38:11;;;;;;;3.38;2.40;;;;;16.80;101135.00;;;;2065316;28;20298;-70
2021/03/05 02:39:16;;;;;;;3.07;2.33;;;;;16.80;101129.00;;;;2064922;28;20250;-69
2021/03/05 02:40:37;;;;;;;4.45;2.40;;;;;16.80;101131.00;;;;2076069;28;20234;-65
2021/03/05 02:41:38;;;;;;;2.85;2.25;;;;;16.60;101139.00;;;;2089323;28;20296;-70
2021/03/05 02:42:50;;;;;;;3.17;2.43;;;;;16.80;101143.00;;;;2075886;28;20652;-70
2021/03/05 02:43:51;;;;;;;3.38;2.55;;;;;16.80;101133.00;;;;2074243;28;20231;-70
2021/03/05 02:44:59;;;;;;;2.67;2.10;;;;;16.70;101138.00;;;;2075133;28;20613;-69
2021/03/05 02:46:01;;;;;;;3.13;2.45;;;;;16.80;101135.00;;;;2067668;28;20237;-69
2021/03/05 02:47:02;;;;;;;2.38;2.17;;;;;16.80;101141.00;;;;2062538;28;20752;-69
2021/03/05 02:48:06;;;;;;;3.55;2.13;;;;;16.80;101149.00;;;;2067736;28;20263;-69
2021/03/05 02:49:07;;;;;;;2.15;1.95;;;;;16.80;101139.00;;;;2076827;28;20384;-70
2021/03/05 02:50:08;;;;;;;2.30;2.10;;;;;16.80;101139.00;;;;2075699;28;20222;-70
2021/03/05 02:51:08;;;;;;;2.33;2.13;;;;;16.80;101144.00;;;;2069775;28;21001;-69
2021/03/05 02:52:12;;;;;;;2.80;2.50;;;;;16.80;101149.00;;;;2062101;28;20219;-69
2021/03/05 02:53:13;;;;;;;2.22;1.80;;;;;16.80;101145.00;;;;2064965;28;20290;-69
2021/03/05 02:54:13;;;;;;;2.27;2.07;;;;;16.80;101156.00;;;;2064552;28;20259;-69
2021/03/05 02:55:14;;;;;;;2.50;2.30;;;;;16.80;101150.00;;;;2067352;28;20721;-70
2021/03/05 02:56:18;;;;;;;2.37;2.17;;;;;16.80;101160.00;;;;2081690;28;20288;-70
2021/03/05 02:57:18;;;;;;;3.25;2.47;;;;;16.80;101151.00;;;;2091973;28;20220;-68
2021/03/05 02:58:18;;;;;;;2.63;2.23;;;;;16.80;101148.00;;;;2067530;28;20222;-69
2021/03/05 02:59:19;;;;;;;2.90;2.33;;;;;16.80;101159.00;;;;2054564;28;20212;-69
2021/03/05 03:00:20;;;;;;;2.33;2.00;;;;;16.80;101146.00;;;;2069058;28;20223;-70
2021/03/05 03:01:21;;;;;;;2.20;2.00;;;;;16.80;101149.00;;;;2066072;28;20215;-69
2021/03/05 03:02:26;;;;;;;2.67;2.30;;;;;16.80;101153.00;;;;2066579;28;20489;-69
2021/03/05 03:03:26;;;;;;;2.75;2.33;;;;;16.80;101155.00;;;;2077680;28;21026;-69
2021/03/05 03:04:27;;;;;;;2.80;2.50;;;;;16.80;101153.00;;;;2085449;28;20217;-70
2021/03/05 03:05:29;;;;;;;2.77;2.37;;;;;16.80;101150.00;;;;2085454;28;20214;-69
2021/03/05 03:06:29;;;;;;;2.88;2.30;;;;;16.80;101152.00;;;;2077018;28;20952;-69
2021/03/05 03:07:29;;;;;;;3.03;2.00;;;;;16.80;101147.00;;;;2069024;28;20216;-69
2021/03/05 03:08:30;;;;;;;2.37;2.17;;;;;16.80;101156.00;;;;2068825;28;20222;-70
2021/03/05 03:09:31;;;;;;;3.00;2.20;;;;;16.70;101163.00;;;;2067711;28;20212;-69
2021/03/05 03:10:32;;;;;;;2.20;2.00;;;;;16.80;101155.00;;;;2060498;28;20204;-69
2021/03/05 03:11:33;;;;;;;2.33;2.13;;;;;16.80;101152.00;;;;2077151;28;20199;-69
2021/03/05 03:12:33;;;;;;;2.53;2.30;;;;;16.80;101159.00;;;;2085933;28;20747;-70
2021/03/05 03:13:34;;;;;;;2.87;2.20;;;;;16.80;101156.00;;;;2093612;28;20998;-69
2021/03/05 03:14:37;;;;;;;2.90;2.25;;;;;16.80;101164.00;;;;2076280;28;20211;-69
2021/03/05 03:15:38;;;;;;;2.35;2.15;;;;;16.80;101164.00;;;;2061256;28;20834;-70
2021/03/05 03:16:38;;;;;;;3.03;2.73;;;;;16.80;101174.00;;;;2069008;28;20262;-69
2021/03/05 03:17:39;;;;;;;2.13;1.93;;;;;16.80;101168.00;;;;2068963;28;20230;-69
2021/03/05 03:18:39;;;;;;;2.85;2.40;;;;;16.80;101170.00;;;;2068734;28;20306;-69
2021/03/05 03:19:43;;;;;;;2.60;2.40;;;;;16.80;101169.00;;;;2060970;28;20582;-69
2021/03/05 03:20:43;;;;;;;3.30;2.17;;;;;16.80;101171.00;;;;2063786;28;20223;-70
2021/03/05 03:21:44;;;;;;;3.03;2.73;;;;;16.80;101170.00;;;;2060620;28;20227;-70
2021/03/05 03:22:44;;;;;;;2.33;2.13;;;;;16.70;101170.00;;;;2076838;28;20235;-69
2021/03/05 03:23:44;;;;;;;2.70;2.50;;;;;16.80;101170.00;;;;2063542;28;21108;-69
2021/03/05 03:24:45;;;;;;;2.60;2.40;;;;;16.70;101175.00;;;;2075435;28;20952;-70
2021/03/05 03:25:45;;;;;;;2.17;1.97;;;;;16.70;101177.00;;;;2090969;28;20228;-70
2021/03/05 03:26:46;;;;;;;2.47;2.20;;;;;16.70;101173.00;;;;2077133;28;20217;-69
2021/03/05 03:27:46;;;;;;;2.47;2.20;;;;;16.80;101178.00;;;;2069093;28;20210;-70
2021/03/05 03:28:46;;;;;;;2.40;2.20;;;;;16.70;101184.00;;;;2084803;28;20217;-69
2021/03/05 03:29:47;;;;;;;1.97;1.83;;;;;16.80;101185.00;;;;2076943;28;20206;-70
2021/03/05 03:30:47;;;;;;;2.23;2.00;;;;;16.70;101188.00;;;;2068763;28;20223;-70
2021/03/05 03:31:47;;;;;;;2.20;2.00;;;;;16.70;101188.00;;;;2085684;28;20288;-70
2021/03/05 03:32:48;;;;;;;2.40;1.97;;;;;16.70;101175.00;;;;2085608;28;20213;-70
2021/03/05 03:33:48;;;;;;;2.00;1.80;;;;;16.70;101185.00;;;;2085067;28;20217;-70
2021/03/05 03:34:49;;;;;;;2.30;2.10;;;;;16.70;101187.00;;;;2084441;28;20233;-69
2021/03/05 03:35:49;;;;;;;3.00;2.70;;;;;16.70;101194.00;;;;2068278;28;20211;-69
2021/03/05 03:36:50;;;;;;;1.90;1.80;;;;;16.70;101175.00;;;;2060904;28;20215;-69
2021/03/05 03:37:51;;;;;;;2.33;2.13;;;;;16.70;101184.00;;;;2068856;28;20683;-70
2021/03/05 03:38:51;;;;;;;2.43;2.23;;;;;16.80;101191.00;;;;2076723;28;20449;-70
2021/03/05 03:39:51;;;;;;;2.43;2.23;;;;;16.70;101182.00;;;;2076651;28;20494;-69
2021/03/05 03:40:52;;;;;;;2.80;2.50;;;;;16.70;101197.00;;;;2076833;28;20261;-69
2021/03/05 03:41:52;;;;;;;2.17;2.00;;;;;16.70;101196.00;;;;2066435;28;21654;-65
2021/03/05 03:42:53;;;;;;;2.67;2.43;;;;;16.70;101194.00;;;;2068517;28;20283;-68
2021/03/05 03:43:53;;;;;;;2.80;2.10;;;;;16.70;101196.00;;;;2068951;28;20216;-68
2021/03/05 03:44:54;;;;;;;2.70;1.90;;;;;16.70;101198.00;;;;2068211;28;20310;-68
2021/03/05 03:45:54;;;;;;;2.20;2.00;;;;;16.70;101196.00;;;;2084774;28;20213;-69
2021/03/05 03:46:54;;;;;;;3.07;2.27;;;;;16.70;101200.00;;;;2093252;28;20236;-69
2021/03/05 03:47:55;;;;;;;2.50;2.30;;;;;16.70;101185.00;;;;2068901;28;20259;-69
2021/03/05 03:48:57;;;;;;;2.23;1.87;;;;;16.70;101198.00;;;;2066372;28;20232;-70
2021/03/05 03:49:59;;;;;;;2.10;1.90;;;;;16.70;101204.00;;;;2062558;28;20219;-69
2021/03/05 03:51:01;;;;;;;2.30;2.10;;;;;16.70;101162.00;;;;2076789;28;20211;-70
2021/03/05 03:52:10;;;;;;;2.67;1.98;;;;;16.70;101196.00;;;;2073807;28;20870;-69
2021/03/05 03:53:15;;;;;;;2.55;1.90;;;;;16.70;101208.00;;;;2064364;28;20207;-70
2021/03/05 03:54:15;;;;;;;1.95;1.85;;;;;16.70;101219.00;;;;2066441;28;20250;-70
2021/03/05 03:55:16;;;;;;;2.70;2.40;;;;;16.70;101209.00;;;;2073385;28;20617;-70
2021/03/05 03:56:16;;;;;;;2.70;2.00;;;;;16.70;101216.00;;;;2066413;28;20234;-70
2021/03/05 03:57:16;;;;;;;2.30;2.00;;;;;16.70;101207.00;;;;2068544;28;20693;-70
2021/03/05 03:58:17;;;;;;;2.50;2.07;;;;;16.70;101211.00;;;;2062752;28;20269;-70
2021/03/05 03:59:17;;;;;;;2.23;1.97;;;;;16.70;101209.00;;;;2074438;28;20219;-69
2021/03/05 04:00:18;;;;;;;2.40;2.20;;;;;16.70;101211.00;;;;2076651;28;20210;-70
2021/03/05 04:01:18;;;;;;;2.27;2.07;;;;;16.70;101205.00;;;;2066484;28;20716;-70
2021/03/05 04:02:19;;;;;;;2.03;1.73;;;;;16.70;101211.00;;;;2068521;28;20593;-70
2021/03/05 04:03:20;;;;;;;2.10;1.90;;;;;16.70;101200.00;;;;2076842;28;20214;-70
2021/03/05 04:04:20;;;;;;;2.10;1.90;;;;;16.70;101217.00;;;;2073652;28;20346;-70
2021/03/05 04:05:24;;;;;;;1.97;1.70;;;;;16.70;101216.00;;;;2075941;28;20214;-70
2021/03/05 04:06:25;;;;;;;2.05;1.90;;;;;16.70;101212.00;;;;2076725;28;20296;-69
2021/03/05 04:07:25;;;;;;;2.50;2.00;;;;;16.70;101215.00;;;;2085045;28;20230;-69
2021/03/05 04:08:26;;;;;;;2.20;2.00;;;;;16.70;101218.00;;;;2076697;28;20268;-70
2021/03/05 04:09:27;;;;;;;2.40;2.10;;;;;16.70;101221.00;;;;2061893;28;20769;-67
2021/03/05 04:10:27;;;;;;;2.35;2.15;;;;;16.70;101219.00;;;;2058935;28;20208;-69
2021/03/05 04:11:28;;;;;;;1.97;1.87;;;;;16.70;101218.00;;;;2067335;28;20218;-70
2021/03/05 04:12:28;;;;;;;1.80;1.70;;;;;16.70;101232.00;;;;2075027;28;20207;-70
2021/03/05 04:13:29;;;;;;;2.30;2.10;;;;;16.70;101230.00;;;;2076516;28;20277;-70
2021/03/05 04:14:29;;;;;;;2.20;2.00;;;;;16.70;101230.00;;;;2076099;28;20744;-70
2021/03/05 04:15:29;;;;;;;1.90;1.80;;;;;16.70;101229.00;;;;2076486;28;20214;-70
2021/03/05 04:16:30;;;;;;;2.00;1.90;;;;;16.70;101237.00;;;;2060511;28;20215;-70
2021/03/05 04:17:30;;;;;;;2.07;1.80;;;;;16.70;101231.00;;;;2076527;28;20209;-70
2021/03/05 04:18:34;;;;;;;2.40;2.20;;;;;16.70;101233.00;;;;2085200;28;20316;-70
2021/03/05 04:19:34;;;;;;;2.90;1.85;;;;;16.70;101232.00;;;;2083747;28;20205;-70
2021/03/05 04:20:38;;;;;;;1.97;1.80;;;;;16.70;101240.00;;;;2074435;28;20215;-70
2021/03/05 04:21:39;;;;;;;2.03;1.88;;;;;16.70;101238.00;;;;2075145;28;20278;-70
2021/03/05 04:22:40;;;;;;;2.07;1.97;;;;;16.70;101244.00;;;;2071090;28;20213;-70
2021/03/05 04:23:41;;;;;;;2.13;1.63;;;;;16.70;101246.00;;;;2060410;28;20211;-70
2021/03/05 04:24:41;;;;;;;2.23;2.03;;;;;16.70;101242.00;;;;2075898;28;20264;-70
2021/03/05 04:25:41;;;;;;;2.70;2.10;;;;;16.70;101248.00;;;;2076591;28;20226;-70
2021/03/05 04:26:42;;;;;;;2.20;2.00;;;;;16.70;101248.00;;;;2076021;28;20676;-70
2021/03/05 04:27:42;;;;;;;2.30;1.70;;;;;16.70;101247.00;;;;2076672;28;20561;-70
2021/03/05 04:28:43;;;;;;;2.30;1.90;;;;;16.70;101251.00;;;;2076476;28;20229;-69
2021/03/05 04:29:43;;;;;;;1.77;1.67;;;;;16.70;101255.00;;;;2085286;28;20688;-70
2021/03/05 04:30:43;;;;;;;2.10;1.90;;;;;16.70;101255.00;;;;2085491;28;20233;-70
2021/03/05 04:31:44;;;;;;;1.90;1.80;;;;;16.70;101259.00;;;;2085370;28;20222;-70
2021/03/05 04:32:44;;;;;;;2.50;1.90;;;;;16.70;101251.00;;;;2083148;28;20205;-70
2021/03/05 04:33:45;;;;;;;2.50;2.30;;;;;16.70;101255.00;;;;2085284;28;20205;-70
2021/03/05 04:34:45;;;;;;;1.90;1.63;;;;;16.70;101262.00;;;;2084955;28;20998;-70
2021/03/05 04:35:45;;;;;;;2.10;2.00;;;;;16.70;101262.00;;;;2085240;28;20256;-70
2021/03/05 04:36:46;;;;;;;1.40;1.30;;;;;16.70;101262.00;;;;2092726;28;20266;-69
2021/03/05 04:37:46;;;;;;;2.30;2.10;;;;;16.70;101252.00;;;;2076206;28;20716;-70
2021/03/05 04:38:47;;;;;;;2.20;1.80;;;;;16.70;101264.00;;;;2067877;28;20215;-70
2021/03/05 04:39:47;;;;;;;2.20;2.00;;;;;16.70;101258.00;;;;2085210;28;20205;-70
2021/03/05 04:40:47;;;;;;;2.30;1.80;;;;;16.70;101267.00;;;;2085558;28;20225;-70
2021/03/05 04:41:48;;;;;;;1.60;1.50;;;;;16.70;101265.00;;;;2076188;28;20211;-70
2021/03/05 04:42:48;;;;;;;1.97;1.87;;;;;16.60;101263.00;;;;2076607;28;20299;-70
2021/03/05 04:43:48;;;;;;;1.80;1.70;;;;;16.60;101263.00;;;;2085099;28;20205;-70
2021/03/05 04:44:49;;;;;;;2.40;1.97;;;;;16.60;101267.00;;;;2084914;28;23005;-70
2021/03/05 04:45:49;;;;;;;1.70;1.60;;;;;16.60;101261.00;;;;2084942;28;20217;-70
2021/03/05 04:46:50;;;;;;;1.83;1.70;;;;;16.70;101273.00;;;;2076491;28;20218;-70
2021/03/05 04:47:50;;;;;;;1.60;1.50;;;;;16.60;101269.00;;;;2076514;28;20227;-70
2021/03/05 04:48:50;;;;;;;2.90;1.77;;;;;16.60;101273.00;;;;2084841;28;20288;-70
2021/03/05 04:49:51;;;;;;;2.10;1.90;;;;;16.60;101275.00;;;;2090019;28;20279;-70
2021/03/05 04:50:51;;;;;;;1.70;1.40;;;;;16.60;101277.00;;;;2080944;28;20218;-70
2021/03/05 04:51:52;;;;;;;2.33;2.10;;;;;16.60;101273.00;;;;2068670;28;20704;-70
2021/03/05 04:52:52;;;;;;;1.93;1.83;;;;;16.70;101283.00;;;;2076242;28;20220;-70
2021/03/05 04:53:52;;;;;;;1.80;1.70;;;;;16.70;101283.00;;;;2076222;28;20289;-70
2021/03/05 04:54:53;;;;;;;1.60;1.50;;;;;16.70;101287.00;;;;2075873;28;20214;-70
2021/03/05 04:55:53;;;;;;;1.40;1.30;;;;;16.60;101283.00;;;;2076354;28;20922;-70
2021/03/05 04:56:53;;;;;;;1.73;1.50;;;;;16.60;101282.00;;;;2076376;28;20815;-70
2021/03/05 04:57:54;;;;;;;1.63;1.53;;;;;16.60;101291.00;;;;2085060;28;20617;-70
2021/03/05 04:58:54;;;;;;;1.70;1.60;;;;;16.70;101285.00;;;;2084218;28;20634;-70
2021/03/05 04:59:54;;;;;;;2.40;1.90;;;;;16.60;101289.00;;;;2075137;28;20667;-70
2021/03/05 05:00:55;;;;;;;1.50;1.40;;;;;16.60;101287.00;;;;2076322;28;20837;-69
2021/03/05 05:01:55;;;;;;;1.63;1.53;;;;;16.60;101292.00;;;;2076123;28;20714;-70
2021/03/05 05:02:55;;;;;;;2.10;1.90;;;;;16.70;101294.00;;;;2075873;28;20285;-70
2021/03/05 05:03:56;;;;;;;1.80;1.70;;;;;16.60;101292.00;;;;2075918;28;20611;-70
2021/03/05 05:04:56;;;;;;;1.70;1.60;;;;;16.60;101297.00;;;;2075019;28;20238;-70
2021/03/05 05:05:56;;;;;;;1.77;1.67;;;;;16.60;101296.00;;;;2075711;28;20655;-70
2021/03/05 05:06:57;;;;;;;1.83;1.73;;;;;16.60;101299.00;;;;2075565;28;20218;-70